sensor_id;sensor_type;location;lat;lon;timestamp;P1;durP1;ratioP1;P2;durP2;ratioP2
4698;SDS011;33708;49.466;11.176;2022-09-21T00:00:37;8.90;;;2.30;;
4698;SDS011;33708;49.466;11.176;2022-09-21T00:03:03;7.63;;;2.23;;
4698;SDS011;33708;49.466;11.176;2022-09-21T00:05:29;7.17;;;2.13;;
4698;SDS011;33708;49.466;11.176;2022-09-21T00:07:58;11.30;;;2.70;;
4698;SDS011;33708;49.466;11.176;2022-09-21T00:10:25;11.40;;;2.50;;
4698;SDS011;33708;49.466;11.176;2022-09-21T00:12:51;7.70;;;2.40;;
4698;SDS011;33708;49.466;11.176;2022-09-21T00:15:16;9.07;;;2.03;;
4698;SDS011;33708;49.466;11.176;2022-09-21T00:17:43;8.93;;;2.43;;
4698;SDS011;33708;49.466;11.176;2022-09-21T00:20:09;7.90;;;2.50;;
4698;SDS011;33708;49.466;11.176;2022-09-21T00:22:35;7.23;;;2.20;;
4698;SDS011;33708;49.466;11.176;2022-09-21T00:25:01;13.33;;;2.43;;
4698;SDS011;33708;49.466;11.176;2022-09-21T00:27:28;7.07;;;2.20;;
4698;SDS011;33708;49.466;11.176;2022-09-21T00:29:55;14.63;;;2.20;;
4698;SDS011;33708;49.466;11.176;2022-09-21T00:32:21;9.37;;;2.63;;
4698;SDS011;33708;49.466;11.176;2022-09-21T00:34:49;19.33;;;2.20;;
4698;SDS011;33708;49.466;11.176;2022-09-21T00:37:15;9.50;;;2.50;;
4698;SDS011;33708;49.466;11.176;2022-09-21T00:39:42;11.83;;;3.10;;
4698;SDS011;33708;49.466;11.176;2022-09-21T00:45:03;8.43;;;2.53;;
4698;SDS011;33708;49.466;11.176;2022-09-21T00:47:31;11.67;;;2.90;;
4698;SDS011;33708;49.466;11.176;2022-09-21T00:50:07;7.00;;;2.50;;
4698;SDS011;33708;49.466;11.176;2022-09-21T00:52:39;8.83;;;2.40;;
4698;SDS011;33708;49.466;11.176;2022-09-21T00:55:09;10.80;;;2.83;;
4698;SDS011;33708;49.466;11.176;2022-09-21T00:57:39;7.40;;;2.20;;
4698;SDS011;33708;49.466;11.176;2022-09-21T01:00:07;9.90;;;2.43;;
4698;SDS011;33708;49.466;11.176;2022-09-21T01:02:37;18.93;;;2.40;;
4698;SDS011;33708;49.466;11.176;2022-09-21T01:05:04;9.37;;;2.50;;
4698;SDS011;33708;49.466;11.176;2022-09-21T01:07:33;14.83;;;2.30;;
4698;SDS011;33708;49.466;11.176;2022-09-21T01:10:04;8.53;;;2.07;;
4698;SDS011;33708;49.466;11.176;2022-09-21T01:23:42;10.10;;;2.70;;
4698;SDS011;33708;49.466;11.176;2022-09-21T01:31:42;7.70;;;2.53;;
4698;SDS011;33708;49.466;11.176;2022-09-21T01:34:33;7.60;;;2.40;;
4698;SDS011;33708;49.466;11.176;2022-09-21T01:37:12;11.27;;;2.93;;
4698;SDS011;33708;49.466;11.176;2022-09-21T01:39:44;15.87;;;3.00;;
4698;SDS011;33708;49.466;11.176;2022-09-21T01:42:13;12.27;;;2.70;;
4698;SDS011;33708;49.466;11.176;2022-09-21T01:44:41;24.17;;;3.00;;
4698;SDS011;33708;49.466;11.176;2022-09-21T01:47:10;12.53;;;3.27;;
4698;SDS011;33708;49.466;11.176;2022-09-21T01:49:40;10.20;;;2.20;;
4698;SDS011;33708;49.466;11.176;2022-09-21T01:52:16;13.13;;;2.77;;
4698;SDS011;33708;49.466;11.176;2022-09-21T01:54:45;13.90;;;3.67;;
4698;SDS011;33708;49.466;11.176;2022-09-21T01:57:16;52.63;;;4.03;;
4698;SDS011;33708;49.466;11.176;2022-09-21T01:59:51;52.40;;;4.37;;
4698;SDS011;33708;49.466;11.176;2022-09-21T02:02:23;18.80;;;3.07;;
4698;SDS011;33708;49.466;11.176;2022-09-21T02:04:55;14.80;;;3.17;;
4698;SDS011;33708;49.466;11.176;2022-09-21T02:07:24;7.17;;;2.67;;
4698;SDS011;33708;49.466;11.176;2022-09-21T02:09:50;9.20;;;2.43;;
4698;SDS011;33708;49.466;11.176;2022-09-21T02:12:19;13.27;;;3.00;;
4698;SDS011;33708;49.466;11.176;2022-09-21T02:14:45;7.07;;;2.13;;
4698;SDS011;33708;49.466;11.176;2022-09-21T02:17:17;11.53;;;2.70;;
4698;SDS011;33708;49.466;11.176;2022-09-21T02:25:04;9.23;;;2.70;;
4698;SDS011;33708;49.466;11.176;2022-09-21T02:27:45;8.20;;;2.50;;
4698;SDS011;33708;49.466;11.176;2022-09-21T02:30:20;11.97;;;2.60;;
4698;SDS011;33708;49.466;11.176;2022-09-21T02:35:52;7.33;;;2.70;;
4698;SDS011;33708;49.466;11.176;2022-09-21T02:41:16;27.20;;;2.73;;
4698;SDS011;33708;49.466;11.176;2022-09-21T02:46:27;48.30;;;4.10;;
4698;SDS011;33708;49.466;11.176;2022-09-21T02:49:15;50.20;;;3.43;;
4698;SDS011;33708;49.466;11.176;2022-09-21T02:51:46;93.90;;;4.73;;
4698;SDS011;33708;49.466;11.176;2022-09-21T02:54:15;29.20;;;3.50;;
4698;SDS011;33708;49.466;11.176;2022-09-21T02:56:44;36.67;;;3.27;;
4698;SDS011;33708;49.466;11.176;2022-09-21T02:59:11;62.57;;;3.90;;
4698;SDS011;33708;49.466;11.176;2022-09-21T03:01:38;33.77;;;3.43;;
4698;SDS011;33708;49.466;11.176;2022-09-21T03:04:05;37.50;;;3.67;;
4698;SDS011;33708;49.466;11.176;2022-09-21T03:06:30;126.60;;;5.70;;
4698;SDS011;33708;49.466;11.176;2022-09-21T03:08:57;185.20;;;5.43;;
4698;SDS011;33708;49.466;11.176;2022-09-21T03:11:23;19.10;;;2.70;;
4698;SDS011;33708;49.466;11.176;2022-09-21T03:13:49;42.13;;;3.53;;
4698;SDS011;33708;49.466;11.176;2022-09-21T03:16:15;41.23;;;3.50;;
4698;SDS011;33708;49.466;11.176;2022-09-21T03:18:41;142.03;;;6.13;;
4698;SDS011;33708;49.466;11.176;2022-09-21T03:21:08;118.63;;;5.63;;
4698;SDS011;33708;49.466;11.176;2022-09-21T03:23:34;20.13;;;2.67;;
4698;SDS011;33708;49.466;11.176;2022-09-21T03:26:00;105.10;;;5.37;;
4698;SDS011;33708;49.466;11.176;2022-09-21T03:28:26;14.53;;;2.73;;
4698;SDS011;33708;49.466;11.176;2022-09-21T03:30:52;28.47;;;3.20;;
4698;SDS011;33708;49.466;11.176;2022-09-21T03:33:18;80.97;;;4.80;;
4698;SDS011;33708;49.466;11.176;2022-09-21T03:35:46;178.63;;;5.90;;
4698;SDS011;33708;49.466;11.176;2022-09-21T03:38:12;52.23;;;3.33;;
4698;SDS011;33708;49.466;11.176;2022-09-21T03:40:38;22.50;;;3.13;;
4698;SDS011;33708;49.466;11.176;2022-09-21T03:43:03;57.83;;;4.20;;
4698;SDS011;33708;49.466;11.176;2022-09-21T03:45:29;59.93;;;4.27;;
4698;SDS011;33708;49.466;11.176;2022-09-21T03:47:55;19.13;;;2.30;;
4698;SDS011;33708;49.466;11.176;2022-09-21T03:50:23;51.40;;;3.37;;
4698;SDS011;33708;49.466;11.176;2022-09-21T03:52:50;12.60;;;2.30;;
4698;SDS011;33708;49.466;11.176;2022-09-21T03:55:16;14.13;;;2.30;;
4698;SDS011;33708;49.466;11.176;2022-09-21T03:57:41;11.40;;;3.00;;
4698;SDS011;33708;49.466;11.176;2022-09-21T04:00:07;9.87;;;2.17;;
4698;SDS011;33708;49.466;11.176;2022-09-21T04:02:34;6.70;;;2.33;;
4698;SDS011;33708;49.466;11.176;2022-09-21T04:05:01;10.00;;;2.83;;
4698;SDS011;33708;49.466;11.176;2022-09-21T04:07:31;7.10;;;2.47;;
4698;SDS011;33708;49.466;11.176;2022-09-21T04:10:00;12.53;;;3.03;;
4698;SDS011;33708;49.466;11.176;2022-09-21T04:12:27;12.47;;;2.57;;
4698;SDS011;33708;49.466;11.176;2022-09-21T04:14:53;18.17;;;3.03;;
4698;SDS011;33708;49.466;11.176;2022-09-21T04:17:19;9.37;;;3.03;;
4698;SDS011;33708;49.466;11.176;2022-09-21T04:19:45;19.00;;;4.00;;
4698;SDS011;33708;49.466;11.176;2022-09-21T04:22:11;24.43;;;4.10;;
4698;SDS011;33708;49.466;11.176;2022-09-21T04:24:37;16.87;;;4.13;;
4698;SDS011;33708;49.466;11.176;2022-09-21T04:27:06;49.40;;;5.67;;
4698;SDS011;33708;49.466;11.176;2022-09-21T04:29:33;12.77;;;4.10;;
4698;SDS011;33708;49.466;11.176;2022-09-21T04:31:58;43.43;;;5.60;;
4698;SDS011;33708;49.466;11.176;2022-09-21T04:34:24;25.27;;;5.03;;
4698;SDS011;33708;49.466;11.176;2022-09-21T04:36:50;75.70;;;6.50;;
4698;SDS011;33708;49.466;11.176;2022-09-21T04:39:17;19.00;;;4.00;;
4698;SDS011;33708;49.466;11.176;2022-09-21T04:41:43;44.60;;;5.83;;
4698;SDS011;33708;49.466;11.176;2022-09-21T04:44:09;125.37;;;6.07;;
4698;SDS011;33708;49.466;11.176;2022-09-21T04:46:35;62.43;;;7.10;;
4698;SDS011;33708;49.466;11.176;2022-09-21T04:49:00;47.97;;;5.43;;
4698;SDS011;33708;49.466;11.176;2022-09-21T04:51:26;60.13;;;5.40;;
4698;SDS011;33708;49.466;11.176;2022-09-21T04:53:51;97.70;;;5.90;;
4698;SDS011;33708;49.466;11.176;2022-09-21T04:56:17;49.90;;;4.87;;
4698;SDS011;33708;49.466;11.176;2022-09-21T04:58:43;46.33;;;4.50;;
4698;SDS011;33708;49.466;11.176;2022-09-21T05:01:09;14.83;;;5.03;;
4698;SDS011;33708;49.466;11.176;2022-09-21T05:03:35;27.20;;;6.73;;
4698;SDS011;33708;49.466;11.176;2022-09-21T05:06:01;25.53;;;5.83;;
4698;SDS011;33708;49.466;11.176;2022-09-21T05:08:27;113.63;;;7.60;;
4698;SDS011;33708;49.466;11.176;2022-09-21T05:11:25;134.80;;;6.80;;
4698;SDS011;33708;49.466;11.176;2022-09-21T05:13:51;32.13;;;6.60;;
4698;SDS011;33708;49.466;11.176;2022-09-21T05:16:17;102.27;;;6.70;;
4698;SDS011;33708;49.466;11.176;2022-09-21T05:18:43;96.47;;;7.47;;
4698;SDS011;33708;49.466;11.176;2022-09-21T05:21:10;202.87;;;7.80;;
4698;SDS011;33708;49.466;11.176;2022-09-21T05:23:37;205.13;;;9.50;;
4698;SDS011;33708;49.466;11.176;2022-09-21T05:26:03;114.40;;;6.80;;
4698;SDS011;33708;49.466;11.176;2022-09-21T05:28:29;114.97;;;6.07;;
4698;SDS011;33708;49.466;11.176;2022-09-21T05:31:00;46.40;;;6.00;;
4698;SDS011;33708;49.466;11.176;2022-09-21T05:33:27;43.63;;;6.00;;
4698;SDS011;33708;49.466;11.176;2022-09-21T05:36:03;94.37;;;6.70;;
4698;SDS011;33708;49.466;11.176;2022-09-21T05:38:49;133.40;;;5.87;;
4698;SDS011;33708;49.466;11.176;2022-09-21T05:41:15;51.73;;;5.00;;
4698;SDS011;33708;49.466;11.176;2022-09-21T05:43:41;42.17;;;4.50;;
4698;SDS011;33708;49.466;11.176;2022-09-21T05:46:53;41.97;;;4.33;;
4698;SDS011;33708;49.466;11.176;2022-09-21T05:49:05;115.27;;;5.20;;
4698;SDS011;33708;49.466;11.176;2022-09-21T05:51:55;57.33;;;8.03;;
4698;SDS011;33708;49.466;11.176;2022-09-21T06:00:16;123.97;;;5.10;;
4698;SDS011;33708;49.466;11.176;2022-09-21T06:05:41;109.97;;;4.63;;
4698;SDS011;33708;49.466;11.176;2022-09-21T06:08:07;154.30;;;5.97;;
4698;SDS011;33708;49.466;11.176;2022-09-21T06:10:33;91.57;;;4.93;;
4698;SDS011;33708;49.466;11.176;2022-09-21T06:12:59;135.60;;;5.63;;
4698;SDS011;33708;49.466;11.176;2022-09-21T06:15:25;74.83;;;4.60;;
4698;SDS011;33708;49.466;11.176;2022-09-21T06:17:51;21.23;;;4.03;;
4698;SDS011;33708;49.466;11.176;2022-09-21T06:20:16;97.20;;;4.40;;
4698;SDS011;33708;49.466;11.176;2022-09-21T06:22:42;65.03;;;4.33;;
4698;SDS011;33708;49.466;11.176;2022-09-21T06:25:08;70.43;;;3.80;;
4698;SDS011;33708;49.466;11.176;2022-09-21T06:27:33;30.93;;;3.10;;
4698;SDS011;33708;49.466;11.176;2022-09-21T06:29:59;48.27;;;4.20;;
4698;SDS011;33708;49.466;11.176;2022-09-21T06:32:25;50.83;;;3.63;;
4698;SDS011;33708;49.466;11.176;2022-09-21T06:34:50;58.13;;;5.00;;
4698;SDS011;33708;49.466;11.176;2022-09-21T06:37:16;112.87;;;6.07;;
4698;SDS011;33708;49.466;11.176;2022-09-21T06:39:42;62.43;;;6.67;;
4698;SDS011;33708;49.466;11.176;2022-09-21T06:42:07;21.27;;;4.33;;
4698;SDS011;33708;49.466;11.176;2022-09-21T06:44:33;15.40;;;3.40;;
4698;SDS011;33708;49.466;11.176;2022-09-21T06:46:58;24.80;;;4.23;;
4698;SDS011;33708;49.466;11.176;2022-09-21T06:49:24;17.80;;;4.70;;
4698;SDS011;33708;49.466;11.176;2022-09-21T06:51:52;172.77;;;7.43;;
4698;SDS011;33708;49.466;11.176;2022-09-21T06:54:18;94.23;;;4.70;;
4698;SDS011;33708;49.466;11.176;2022-09-21T06:56:44;21.50;;;4.70;;
4698;SDS011;33708;49.466;11.176;2022-09-21T06:59:10;243.23;;;7.77;;
4698;SDS011;33708;49.466;11.176;2022-09-21T07:01:36;89.27;;;5.20;;
4698;SDS011;33708;49.466;11.176;2022-09-21T07:04:02;125.57;;;6.33;;
4698;SDS011;33708;49.466;11.176;2022-09-21T07:06:27;644.47;;;16.47;;
4698;SDS011;33708;49.466;11.176;2022-09-21T07:08:53;269.87;;;9.17;;
4698;SDS011;33708;49.466;11.176;2022-09-21T07:11:19;403.10;;;12.03;;
4698;SDS011;33708;49.466;11.176;2022-09-21T07:13:47;426.03;;;13.30;;
4698;SDS011;33708;49.466;11.176;2022-09-21T07:16:14;266.30;;;8.77;;
4698;SDS011;33708;49.466;11.176;2022-09-21T07:18:40;261.80;;;10.87;;
4698;SDS011;33708;49.466;11.176;2022-09-21T07:21:07;137.80;;;6.77;;
4698;SDS011;33708;49.466;11.176;2022-09-21T07:23:34;12.77;;;4.47;;
4698;SDS011;33708;49.466;11.176;2022-09-21T07:26:01;39.27;;;5.77;;
4698;SDS011;33708;49.466;11.176;2022-09-21T07:28:29;44.27;;;6.07;;
4698;SDS011;33708;49.466;11.176;2022-09-21T07:30:55;169.43;;;6.73;;
4698;SDS011;33708;49.466;11.176;2022-09-21T07:33:21;76.70;;;7.20;;
4698;SDS011;33708;49.466;11.176;2022-09-21T07:35:54;12.50;;;4.03;;
4698;SDS011;33708;49.466;11.176;2022-09-21T07:38:22;16.13;;;5.33;;
4698;SDS011;33708;49.466;11.176;2022-09-21T07:40:48;13.93;;;4.30;;
4698;SDS011;33708;49.466;11.176;2022-09-21T07:43:14;187.17;;;8.43;;
4698;SDS011;33708;49.466;11.176;2022-09-21T07:45:40;341.07;;;10.57;;
4698;SDS011;33708;49.466;11.176;2022-09-21T07:48:06;86.67;;;6.47;;
4698;SDS011;33708;49.466;11.176;2022-09-21T07:50:35;187.70;;;8.90;;
4698;SDS011;33708;49.466;11.176;2022-09-21T07:53:01;40.47;;;5.10;;
4698;SDS011;33708;49.466;11.176;2022-09-21T07:55:27;93.47;;;6.60;;
4698;SDS011;33708;49.466;11.176;2022-09-21T07:57:53;16.37;;;4.20;;
4698;SDS011;33708;49.466;11.176;2022-09-21T08:00:38;17.00;;;4.50;;
4698;SDS011;33708;49.466;11.176;2022-09-21T08:03:04;19.83;;;5.40;;
4698;SDS011;33708;49.466;11.176;2022-09-21T08:05:31;52.77;;;5.43;;
4698;SDS011;33708;49.466;11.176;2022-09-21T08:07:56;16.73;;;4.30;;
4698;SDS011;33708;49.466;11.176;2022-09-21T08:10:23;22.97;;;5.00;;
4698;SDS011;33708;49.466;11.176;2022-09-21T08:12:52;16.23;;;4.47;;
4698;SDS011;33708;49.466;11.176;2022-09-21T08:15:18;8.13;;;3.60;;
4698;SDS011;33708;49.466;11.176;2022-09-21T08:17:44;9.90;;;3.80;;
4698;SDS011;33708;49.466;11.176;2022-09-21T08:20:10;13.03;;;4.00;;
4698;SDS011;33708;49.466;11.176;2022-09-21T08:22:35;9.70;;;4.07;;
4698;SDS011;33708;49.466;11.176;2022-09-21T08:25:01;8.60;;;3.90;;
4698;SDS011;33708;49.466;11.176;2022-09-21T08:27:28;13.80;;;4.40;;
4698;SDS011;33708;49.466;11.176;2022-09-21T08:29:54;19.83;;;5.00;;
4698;SDS011;33708;49.466;11.176;2022-09-21T08:32:20;14.17;;;4.57;;
4698;SDS011;33708;49.466;11.176;2022-09-21T08:34:45;15.33;;;4.40;;
4698;SDS011;33708;49.466;11.176;2022-09-21T08:37:11;11.50;;;4.57;;
4698;SDS011;33708;49.466;11.176;2022-09-21T08:39:37;17.43;;;4.73;;
4698;SDS011;33708;49.466;11.176;2022-09-21T08:47:14;11.10;;;4.93;;
4698;SDS011;33708;49.466;11.176;2022-09-21T08:49:48;10.47;;;4.10;;
4698;SDS011;33708;49.466;11.176;2022-09-21T08:52:19;11.03;;;3.77;;
4698;SDS011;33708;49.466;11.176;2022-09-21T08:54:56;11.40;;;4.43;;
4698;SDS011;33708;49.466;11.176;2022-09-21T08:57:27;8.57;;;4.07;;
4698;SDS011;33708;49.466;11.176;2022-09-21T08:59:54;11.67;;;4.77;;
4698;SDS011;33708;49.466;11.176;2022-09-21T09:02:37;12.33;;;5.10;;
4698;SDS011;33708;49.466;11.176;2022-09-21T09:13:37;8.80;;;3.77;;
4698;SDS011;33708;49.466;11.176;2022-09-21T09:21:39;7.50;;;3.47;;
4698;SDS011;33708;49.466;11.176;2022-09-21T09:24:10;9.30;;;3.03;;
4698;SDS011;33708;49.466;11.176;2022-09-21T09:29:20;9.17;;;3.43;;
4698;SDS011;33708;49.466;11.176;2022-09-21T09:32:09;8.33;;;3.00;;
4698;SDS011;33708;49.466;11.176;2022-09-21T09:34:40;9.87;;;4.70;;
4698;SDS011;33708;49.466;11.176;2022-09-21T09:37:10;8.43;;;3.70;;
4698;SDS011;33708;49.466;11.176;2022-09-21T09:39:38;10.40;;;3.87;;
4698;SDS011;33708;49.466;11.176;2022-09-21T09:45:16;11.90;;;4.20;;
4698;SDS011;33708;49.466;11.176;2022-09-21T09:50:55;13.33;;;5.03;;
4698;SDS011;33708;49.466;11.176;2022-09-21T09:53:23;16.33;;;5.57;;
4698;SDS011;33708;49.466;11.176;2022-09-21T09:55:51;12.40;;;5.10;;
4698;SDS011;33708;49.466;11.176;2022-09-21T10:00:55;15.10;;;4.10;;
4698;SDS011;33708;49.466;11.176;2022-09-21T10:03:24;12.50;;;4.33;;
4698;SDS011;33708;49.466;11.176;2022-09-21T10:05:52;9.77;;;3.80;;
4698;SDS011;33708;49.466;11.176;2022-09-21T10:11:03;8.47;;;3.73;;
4698;SDS011;33708;49.466;11.176;2022-09-21T10:13:34;11.40;;;4.63;;
4698;SDS011;33708;49.466;11.176;2022-09-21T10:16:11;7.57;;;3.03;;
4698;SDS011;33708;49.466;11.176;2022-09-21T10:23:46;15.37;;;3.67;;
4698;SDS011;33708;49.466;11.176;2022-09-21T10:26:16;8.23;;;3.10;;
4698;SDS011;33708;49.466;11.176;2022-09-21T10:31:21;7.90;;;2.83;;
4698;SDS011;33708;49.466;11.176;2022-09-21T10:33:52;7.33;;;2.30;;
4698;SDS011;33708;49.466;11.176;2022-09-21T10:36:34;9.40;;;2.50;;
4698;SDS011;33708;49.466;11.176;2022-09-21T10:39:34;9.10;;;2.53;;
4698;SDS011;33708;49.466;11.176;2022-09-21T10:42:05;6.50;;;2.07;;
4698;SDS011;33708;49.466;11.176;2022-09-21T10:44:49;10.57;;;2.10;;
4698;SDS011;33708;49.466;11.176;2022-09-21T10:50:02;5.63;;;1.33;;
4698;SDS011;33708;49.466;11.176;2022-09-21T10:52:38;6.40;;;1.50;;
4698;SDS011;33708;49.466;11.176;2022-09-21T10:55:06;6.17;;;1.33;;
4698;SDS011;33708;49.466;11.176;2022-09-21T10:57:40;6.70;;;1.70;;
4698;SDS011;33708;49.466;11.176;2022-09-21T11:02:48;5.67;;;1.23;;
4698;SDS011;33708;49.466;11.176;2022-09-21T11:05:16;6.40;;;1.40;;
4698;SDS011;33708;49.466;11.176;2022-09-21T11:10:49;5.70;;;1.03;;
4698;SDS011;33708;49.466;11.176;2022-09-21T11:13:29;5.60;;;1.40;;
4698;SDS011;33708;49.466;11.176;2022-09-21T11:21:25;7.40;;;1.27;;
4698;SDS011;33708;49.466;11.176;2022-09-21T11:27:12;5.60;;;1.07;;
4698;SDS011;33708;49.466;11.176;2022-09-21T11:46:28;10.37;;;1.40;;
4698;SDS011;33708;49.466;11.176;2022-09-21T12:00:26;5.67;;;1.13;;
4698;SDS011;33708;49.466;11.176;2022-09-21T12:08:58;6.67;;;1.50;;
4698;SDS011;33708;49.466;11.176;2022-09-21T12:11:48;5.10;;;1.00;;
4698;SDS011;33708;49.466;11.176;2022-09-21T12:14:36;6.30;;;1.30;;
4698;SDS011;33708;49.466;11.176;2022-09-21T12:17:38;5.70;;;1.30;;
4698;SDS011;33708;49.466;11.176;2022-09-21T12:20:33;7.43;;;1.77;;
4698;SDS011;33708;49.466;11.176;2022-09-21T12:26:13;7.40;;;1.20;;
4698;SDS011;33708;49.466;11.176;2022-09-21T12:28:46;5.60;;;1.20;;
4698;SDS011;33708;49.466;11.176;2022-09-21T12:31:24;5.30;;;1.00;;
4698;SDS011;33708;49.466;11.176;2022-09-21T12:33:56;9.00;;;1.67;;
4698;SDS011;33708;49.466;11.176;2022-09-21T12:39:04;9.50;;;1.43;;
4698;SDS011;33708;49.466;11.176;2022-09-21T12:41:50;10.53;;;2.23;;
4698;SDS011;33708;49.466;11.176;2022-09-21T12:44:27;7.07;;;1.57;;
4698;SDS011;33708;49.466;11.176;2022-09-21T12:46:59;6.63;;;1.30;;
4698;SDS011;33708;49.466;11.176;2022-09-21T12:49:36;8.07;;;1.60;;
4698;SDS011;33708;49.466;11.176;2022-09-21T12:52:07;7.00;;;1.00;;
4698;SDS011;33708;49.466;11.176;2022-09-21T12:54:48;7.67;;;1.10;;
4698;SDS011;33708;49.466;11.176;2022-09-21T12:57:29;6.37;;;1.03;;
4698;SDS011;33708;49.466;11.176;2022-09-21T13:00:12;5.40;;;1.10;;
4698;SDS011;33708;49.466;11.176;2022-09-21T13:08:43;5.60;;;0.90;;
4698;SDS011;33708;49.466;11.176;2022-09-21T13:11:10;6.67;;;1.10;;
4698;SDS011;33708;49.466;11.176;2022-09-21T13:13:37;7.60;;;1.00;;
4698;SDS011;33708;49.466;11.176;2022-09-21T13:16:21;6.20;;;1.10;;
4698;SDS011;33708;49.466;11.176;2022-09-21T13:18:54;6.07;;;1.20;;
4698;SDS011;33708;49.466;11.176;2022-09-21T13:21:23;5.70;;;1.37;;
4698;SDS011;33708;49.466;11.176;2022-09-21T13:24:03;5.90;;;1.10;;
4698;SDS011;33708;49.466;11.176;2022-09-21T13:26:35;8.93;;;1.30;;
4698;SDS011;33708;49.466;11.176;2022-09-21T13:31:56;12.83;;;3.50;;
4698;SDS011;33708;49.466;11.176;2022-09-21T13:34:38;12.80;;;4.23;;
4698;SDS011;33708;49.466;11.176;2022-09-21T13:44:57;5.63;;;1.20;;
4698;SDS011;33708;49.466;11.176;2022-09-21T13:47:38;5.37;;;1.03;;
4698;SDS011;33708;49.466;11.176;2022-09-21T13:52:56;4.87;;;0.87;;
4698;SDS011;33708;49.466;11.176;2022-09-21T13:57:59;7.43;;;2.23;;
4698;SDS011;33708;49.466;11.176;2022-09-21T14:00:40;5.27;;;1.00;;
4698;SDS011;33708;49.466;11.176;2022-09-21T14:03:23;6.00;;;1.10;;
4698;SDS011;33708;49.466;11.176;2022-09-21T14:05:59;5.70;;;1.00;;
4698;SDS011;33708;49.466;11.176;2022-09-21T14:08:31;7.30;;;1.67;;
4698;SDS011;33708;49.466;11.176;2022-09-21T14:11:03;4.97;;;0.80;;
4698;SDS011;33708;49.466;11.176;2022-09-21T14:13:36;5.33;;;0.90;;
4698;SDS011;33708;49.466;11.176;2022-09-21T14:16:24;9.23;;;1.20;;
4698;SDS011;33708;49.466;11.176;2022-09-21T14:19:02;6.03;;;0.90;;
4698;SDS011;33708;49.466;11.176;2022-09-21T14:30:21;6.30;;;1.07;;
4698;SDS011;33708;49.466;11.176;2022-09-21T14:35:21;5.40;;;0.90;;
4698;SDS011;33708;49.466;11.176;2022-09-21T14:37:49;9.33;;;1.00;;
4698;SDS011;33708;49.466;11.176;2022-09-21T14:40:24;7.20;;;1.00;;
4698;SDS011;33708;49.466;11.176;2022-09-21T14:42:56;6.20;;;0.90;;
4698;SDS011;33708;49.466;11.176;2022-09-21T14:45:36;5.60;;;1.10;;
4698;SDS011;33708;49.466;11.176;2022-09-21T14:48:21;5.10;;;0.80;;
4698;SDS011;33708;49.466;11.176;2022-09-21T14:51:05;5.20;;;0.87;;
4698;SDS011;33708;49.466;11.176;2022-09-21T15:02:11;6.20;;;1.00;;
4698;SDS011;33708;49.466;11.176;2022-09-21T15:07:30;6.03;;;0.90;;
4698;SDS011;33708;49.466;11.176;2022-09-21T15:10:44;5.90;;;0.80;;
4698;SDS011;33708;49.466;11.176;2022-09-21T15:13:50;6.73;;;1.00;;
4698;SDS011;33708;49.466;11.176;2022-09-21T15:21:49;6.73;;;1.17;;
4698;SDS011;33708;49.466;11.176;2022-09-21T15:24:18;5.57;;;0.90;;
4698;SDS011;33708;49.466;11.176;2022-09-21T15:29:36;5.70;;;1.10;;
4698;SDS011;33708;49.466;11.176;2022-09-21T15:32:04;5.60;;;1.20;;
4698;SDS011;33708;49.466;11.176;2022-09-21T15:34:30;15.63;;;1.10;;
4698;SDS011;33708;49.466;11.176;2022-09-21T15:37:06;5.73;;;1.20;;
4698;SDS011;33708;49.466;11.176;2022-09-21T15:39:40;6.50;;;1.20;;
4698;SDS011;33708;49.466;11.176;2022-09-21T15:44:35;6.00;;;1.47;;
4698;SDS011;33708;49.466;11.176;2022-09-21T15:47:02;7.80;;;1.20;;
4698;SDS011;33708;49.466;11.176;2022-09-21T15:49:32;6.30;;;1.33;;
4698;SDS011;33708;49.466;11.176;2022-09-21T15:52:02;5.47;;;1.20;;
4698;SDS011;33708;49.466;11.176;2022-09-21T15:54:33;6.23;;;1.27;;
4698;SDS011;33708;49.466;11.176;2022-09-21T15:57:02;5.83;;;1.20;;
4698;SDS011;33708;49.466;11.176;2022-09-21T15:59:30;6.37;;;1.40;;
4698;SDS011;33708;49.466;11.176;2022-09-21T16:01:57;6.33;;;1.13;;
4698;SDS011;33708;49.466;11.176;2022-09-21T16:04:26;7.40;;;1.20;;
4698;SDS011;33708;49.466;11.176;2022-09-21T16:07:00;5.80;;;1.10;;
4698;SDS011;33708;49.466;11.176;2022-09-21T16:09:41;7.10;;;1.30;;
4698;SDS011;33708;49.466;11.176;2022-09-21T16:14:49;5.60;;;1.30;;
4698;SDS011;33708;49.466;11.176;2022-09-21T16:17:25;6.50;;;1.23;;
4698;SDS011;33708;49.466;11.176;2022-09-21T16:22:38;6.70;;;1.30;;
4698;SDS011;33708;49.466;11.176;2022-09-21T16:25:22;18.77;;;1.40;;
4698;SDS011;33708;49.466;11.176;2022-09-21T16:28:26;5.37;;;0.97;;
4698;SDS011;33708;49.466;11.176;2022-09-21T16:30:53;7.90;;;1.20;;
4698;SDS011;33708;49.466;11.176;2022-09-21T16:38:56;6.80;;;1.47;;
4698;SDS011;33708;49.466;11.176;2022-09-21T16:41:22;8.80;;;1.27;;
4698;SDS011;33708;49.466;11.176;2022-09-21T16:43:57;10.00;;;1.60;;
4698;SDS011;33708;49.466;11.176;2022-09-21T16:46:24;6.83;;;1.70;;
4698;SDS011;33708;49.466;11.176;2022-09-21T16:48:51;7.70;;;1.50;;
4698;SDS011;33708;49.466;11.176;2022-09-21T16:51:17;6.90;;;1.80;;
4698;SDS011;33708;49.466;11.176;2022-09-21T16:53:48;10.53;;;1.70;;
4698;SDS011;33708;49.466;11.176;2022-09-21T16:56:17;10.27;;;1.50;;
4698;SDS011;33708;49.466;11.176;2022-09-21T16:58:42;6.30;;;1.67;;
4698;SDS011;33708;49.466;11.176;2022-09-21T17:01:10;8.10;;;2.10;;
4698;SDS011;33708;49.466;11.176;2022-09-21T17:03:37;8.90;;;1.70;;
4698;SDS011;33708;49.466;11.176;2022-09-21T17:06:04;7.27;;;2.07;;
4698;SDS011;33708;49.466;11.176;2022-09-21T17:08:35;18.30;;;2.13;;
4698;SDS011;33708;49.466;11.176;2022-09-21T17:11:01;9.97;;;1.83;;
4698;SDS011;33708;49.466;11.176;2022-09-21T17:13:28;9.10;;;1.70;;
4698;SDS011;33708;49.466;11.176;2022-09-21T17:15:55;7.90;;;2.50;;
4698;SDS011;33708;49.466;11.176;2022-09-21T17:18:22;9.37;;;2.10;;
4698;SDS011;33708;49.466;11.176;2022-09-21T17:20:48;6.80;;;1.80;;
4698;SDS011;33708;49.466;11.176;2022-09-21T17:23:14;9.00;;;2.20;;
4698;SDS011;33708;49.466;11.176;2022-09-21T17:25:40;10.30;;;3.53;;
4698;SDS011;33708;49.466;11.176;2022-09-21T17:28:17;7.57;;;2.10;;
4698;SDS011;33708;49.466;11.176;2022-09-21T17:30:49;8.47;;;2.10;;
4698;SDS011;33708;49.466;11.176;2022-09-21T17:33:15;7.50;;;2.00;;
4698;SDS011;33708;49.466;11.176;2022-09-21T17:35:41;8.10;;;1.80;;
4698;SDS011;33708;49.466;11.176;2022-09-21T17:38:07;5.73;;;1.50;;
4698;SDS011;33708;49.466;11.176;2022-09-21T17:40:34;10.70;;;1.73;;
4698;SDS011;33708;49.466;11.176;2022-09-21T17:46:05;12.43;;;4.20;;
4698;SDS011;33708;49.466;11.176;2022-09-21T17:48:38;11.63;;;3.20;;
4698;SDS011;33708;49.466;11.176;2022-09-21T17:51:05;8.30;;;2.20;;
4698;SDS011;33708;49.466;11.176;2022-09-21T17:53:31;9.03;;;2.03;;
4698;SDS011;33708;49.466;11.176;2022-09-21T17:59:02;8.43;;;1.77;;
4698;SDS011;33708;49.466;11.176;2022-09-21T18:01:32;9.60;;;2.03;;
4698;SDS011;33708;49.466;11.176;2022-09-21T18:04:06;10.00;;;1.50;;
4698;SDS011;33708;49.466;11.176;2022-09-21T18:06:34;6.57;;;1.90;;
4698;SDS011;33708;49.466;11.176;2022-09-21T18:09:01;20.67;;;12.20;;
4698;SDS011;33708;49.466;11.176;2022-09-21T18:25:10;7.60;;;2.50;;
4698;SDS011;33708;49.466;11.176;2022-09-21T18:27:40;12.43;;;2.60;;
4698;SDS011;33708;49.466;11.176;2022-09-21T18:30:09;12.83;;;3.10;;
4698;SDS011;33708;49.466;11.176;2022-09-21T18:32:40;8.50;;;2.23;;
4698;SDS011;33708;49.466;11.176;2022-09-21T18:36:05;10.67;;;4.93;;
4698;SDS011;33708;49.466;11.176;2022-09-21T18:38:46;7.80;;;2.37;;
4698;SDS011;33708;49.466;11.176;2022-09-21T18:41:29;22.10;;;10.30;;
4698;SDS011;33708;49.466;11.176;2022-09-21T18:54:53;11.07;;;3.70;;